Mogul Park, Mogul, Nevada Weather observations

Data are for 10 minute period ending at time listed.
 Day   Time   Solar   Ave.   Ave.  Ave.  Vector  Max.   Baro.   Total    
  of    of     Rad.   Air    Rel.  Wind   Wind   Wind  Press.  Precip.   
Year   Day            Temp.  Hum.  Speed  Dir.   Gust                    
2026   (PST)  Kw/m2    F      %     mph   deg.    mph    mb.     in.     
-------------------------------------------------------------------------
 121   11:10   0.97   70.2    20    7.3    92    14.2   99999.0    0.00 
 121   11:20   0.94   70.1    19   10.7    93    15.6   99999.0    0.00 
 121   11:30   0.90   69.6    18    9.3    92    15.6   99999.0    0.00 
 121   11:40   0.89   70.1    19    8.7    91    15.6   99999.0    0.00 
 121   11:50   0.91   70.4    19    6.9    78    12.8   99999.0    0.00 
 121   12:00   0.87   70.7    18    8.4   101    14.2   99999.0    0.00 
 121   12:10   0.83   70.8    19    4.2    48     8.8   99999.0    0.00 
 121   12:20   0.83   71.6    19    5.3    64    12.1   99999.0    0.00 
 121   12:30   0.82   70.9    19    7.3    75    15.3   99999.0    0.00 
 121   12:40   0.77   71.3    18    6.2    98    12.1   99999.0    0.00 
 121   12:50   0.73   71.1    18    7.6    91    13.1   99999.0    0.00 
 121   13:00   0.68   71.3    18    6.1   109    14.2   99999.0    0.00 
 121   13:10   0.26   71.4    18    6.6   114    11.0   99999.0    0.00 
 121   13:20   0.69   71.4    18    3.7   212     9.2   99999.0    0.00 
 121   13:30   0.65   71.8    17    6.1   131    12.8   99999.0    0.00 
 121   13:40   0.64   71.4    17    6.7    98    13.1   99999.0    0.00 
 121   13:50   0.58   71.0    17    5.6   102     9.9   99999.0    0.00 
 121   14:00   0.55   71.4    17    6.4    93    10.6   99999.0    0.00 
 121   14:10   0.48   71.2    17    6.3   112     8.8   99999.0    0.00 
 121   14:20   0.44   70.3    17    5.7   124     9.9   99999.0    0.00 
 121   14:30   0.44   70.5    17    5.5    89    10.3   99999.0    0.00 
 121   14:40   0.47   70.9    17    2.8   103     6.0   99999.0    0.00 
 121   14:50   0.38   70.9    16    5.0   100     9.9   99999.0    0.00 
 121   15:00   0.23   69.7    17    6.1   132    12.8   99999.0    0.00 
 121   15:10   0.14   68.9    18    4.9    98     9.2   99999.0    0.00 
 121   15:20   0.15   68.3    18    3.9    85     7.1   99999.0    0.00 
 121   15:30   0.15   68.4    18    3.2   106     6.3   99999.0    0.00 
 121   15:40   0.15   68.3    18    3.3    99     6.0   99999.0    0.00 
 121   15:50   0.12   68.3    18    2.0    89     4.6   99999.0    0.00 
 121   16:00   0.10   68.0    18    4.6    97     7.8   99999.0    0.00 
 121   16:10   0.09   67.9    18    3.5   103     4.6   99999.0    0.00 
 121   16:20   0.07   67.4    19    3.9   103     6.0   99999.0    0.00 
 121   16:30   0.05   67.0    18    5.9   100    10.3   99999.0    0.00 
 121   16:40   0.03   66.5    18    5.5   110     8.1   99999.0    0.00 
 121   16:50   0.02   65.6    18    4.5   108     6.3   99999.0    0.00 
 121   17:00   0.01   64.9    19    4.4   116     7.1   99999.0    0.00 
 121   17:10   0.00   64.3    19    4.5   107     6.7   99999.0    0.00 
 121   17:20   0.00   63.5    19    1.9    57     3.5   99999.0    0.00 
 121   17:30   0.00   62.4    21    1.2   336     2.4   99999.0    0.00 
 121   17:40   0.00   61.8    21    2.2   311     3.1   99999.0    0.00 
 121   17:50   0.00   60.7    24    2.6   283     3.1   99999.0    0.00 
 121   18:00   0.00   60.6    25    1.8   260     3.1   99999.0    0.00 
 121   18:10   0.00   60.0    27    2.3   274     3.5   99999.0    0.00 
 121   18:20   0.00   59.3    28    2.3   256     3.8   99999.0    0.00 
 121   18:30   0.00   58.4    29    2.2   271     3.8   99999.0    0.00 
 121   18:40   0.00   59.0    27    3.1   279     4.9   99999.0    0.00 
 121   18:50   0.00   58.2    28    3.2   251     4.2   99999.0    0.00 
 121   19:00   0.00   57.5    27    2.3   256     4.2   99999.0    0.00 
 121   19:10   0.00   56.5    32    1.5   196     4.2   99999.0    0.00 
 121   19:20   0.00   56.7    38    3.6   269     5.6   99999.0    0.00 
 121   19:30   0.00   57.1    46    2.7   279     4.2   99999.0    0.00 
 121   19:40   0.00   57.3    47    1.2   239     2.8   99999.0    0.00 
 121   19:50   0.00   55.9    44    1.4   245     2.8   99999.0    0.00 
 121   20:00   0.00   54.9    46    2.2   240     3.5   99999.0    0.00 
 121   20:10   0.00   54.8    50    2.1   238     3.1   99999.0    0.00 
 121   20:20   0.00   54.9    52    1.7   253     3.5   99999.0    0.00 
 121   20:30   0.00   55.8    54    2.4   265     4.2   99999.0    0.00 
 121   20:40   0.00   55.3    52    1.5   224     3.1   99999.0    0.00 
 121   20:50   0.00   55.3    54    4.3   276     7.8   99999.0    0.00 
 121   21:00   0.00   55.1    53    1.6   189     4.6   99999.0    0.00 
 121   21:10   0.00   53.5    56    1.9   274     3.5   99999.0    0.00 
 121   21:20   0.00   53.3    57    1.4   140     2.8   99999.0    0.00 
 121   21:30   0.00   52.8    58    1.6   297     4.9   99999.0    0.00 
 121   21:40   0.00   54.8    57    5.4   276     7.4   99999.0    0.00 
 121   21:50   0.00   54.2    56    2.1   251     5.3   99999.0    0.00 
 121   22:00   0.00   53.6    58    2.5   242     5.6   99999.0    0.00 
 121   22:10   0.00   53.8    57    2.9   253     7.8   99999.0    0.00 
 121   22:20   0.00   53.6    57    3.6   260     6.7   99999.0    0.00 
 121   22:30   0.00   53.7    58    5.5   271     8.1   99999.0    0.00 
 121   22:40   0.00   53.4    58    5.9   266     9.6   99999.0    0.00 
 121   22:50   0.00   53.3    56    3.4   264     7.1   99999.0    0.00 
 121   23:00   0.00   53.1    56    5.3   275     8.5   99999.0    0.00 
 121   23:10   0.00   53.0    55    4.5   270     7.8   99999.0    0.00 
 121   23:20   0.00   52.7    57    3.8   285     8.1   99999.0    0.00 
 121   23:30   0.00   51.9    58    4.0   278     6.3   99999.0    0.00 
 121   23:40   0.00   51.6    59    3.2   278     4.9   99999.0    0.00 
 121   23:50   0.00   51.1    59    3.4   273     7.8   99999.0    0.00 
 122    0:00   0.00   51.2    58    5.8   278     7.8   99999.0    0.00 
 122    0:10   0.00   51.0    59    5.8   262     9.2   99999.0    0.00 
 122    0:20   0.00   50.8    60    4.7   253     7.4   99999.0    0.00 
 122    0:30   0.00   50.9    61    5.6   260    11.0   99999.0    0.00 
 122    0:40   0.00   50.9    62    6.0   258    10.6   99999.0    0.00 
 122    0:50   0.00   51.1    61    4.8   261     9.6   99999.0    0.00 
 122    1:00   0.00   50.7    63    5.4   271     9.9   99999.0    0.00 
 122    1:10   0.00   50.5    62    5.3   261    11.3   99999.0    0.00 
 122    1:20   0.00   50.7    62    6.2   265    12.8   99999.0    0.00 
 122    1:30   0.00   50.4    62    8.6   276    12.1   99999.0    0.00 
 122    1:40   0.00   50.2    63    4.7   257    10.3   99999.0    0.00 
 122    1:50   0.00   49.8    64    5.2   255     9.2   99999.0    0.00 
 122    2:00   0.00   49.6    64    5.1   255     9.2   99999.0    0.00 
 122    2:10   0.00   49.4    64    4.1   268     8.1   99999.0    0.00 
 122    2:20   0.00   49.0    65    2.4   187     8.1   99999.0    0.00 
 122    2:30   0.00   48.0    67    1.9   212     5.6   99999.0    0.00 
 122    2:40   0.00   49.0    65    4.2   239     7.4   99999.0    0.00 
 122    2:50   0.00   48.1    66    1.3   173     3.8   99999.0    0.00 
 122    3:00   0.00   47.1    69    1.9   121     3.8   99999.0    0.00 
 122    3:10   0.00   47.6    68    2.5   233     5.3   99999.0    0.00 
 122    3:20   0.00   48.2    66    1.7   248     3.1   99999.0    0.00 
 122    3:30   0.01   48.3    66    2.1   309     4.2   99999.0    0.00 
 122    3:40   0.03   47.7    68    2.8   284     4.2   99999.0    0.00 
 122    3:50   0.03   47.5    69    1.1   142     3.5   99999.0    0.00 
 122    4:00   0.04   47.6    70    3.4   260     7.1   99999.0    0.00 
 122    4:10   0.06   47.6    70    1.7   249     3.8   99999.0    0.00 
 122    4:20   0.08   47.9    71    2.2   274     4.6   99999.0    0.00 
 122    4:30   0.10   48.2    71    2.3   244     3.8   99999.0    0.00 
 122    4:40   0.11   48.3    72    1.9   217     4.2   99999.0    0.00 
 122    4:50   0.14   48.9    71    2.7   241     5.3   99999.0    0.00 
 122    5:00   0.23   50.0    70    2.2   233     3.8   99999.0    0.00 
 122    5:10   0.31   51.8    68    1.5   266     4.9   99999.0    0.00 
 122    5:20   0.34   53.3    65    1.9   250     5.6   99999.0    0.00 
 122    5:30   0.35   54.6    63    3.0   267     5.3   99999.0    0.00 
 122    5:40   0.44   54.8    62    5.8   278     9.6   99999.0    0.00 
 122    5:50   0.32   55.0    60    4.9   274     9.2   99999.0    0.00 
 122    6:00   0.39   55.8    57    3.8   269     6.0   99999.0    0.00 
 122    6:10   0.45   56.9    56    3.8   277     6.0   99999.0    0.00 
 122    6:20   0.51   58.2    54    2.6   249     5.6   99999.0    0.00 
 122    6:30   0.52   59.9    49    1.7   243     3.1   99999.0    0.00 
 122    6:40   0.50   60.9    45    2.4   188     4.9   99999.0    0.00 
 122    6:50   0.51   61.6    43    3.1   104     7.1   99999.0    0.00 
 122    7:00   0.51   62.2    42    1.3    40     2.8   99999.0    0.00 
 122    7:10   0.41   62.8    41    2.0   143     3.8   99999.0    0.00 
 122    7:20   0.40   63.0    42    2.4    93     4.2   99999.0    0.00 
 122    7:30   0.50   63.6    41    2.2   131     4.2   99999.0    0.00 
 122    7:40   0.57   64.8    38    3.2   137     5.3   99999.0    0.00 
 122    7:50   0.62   65.6    36    3.5    70     9.2   99999.0    0.00 
 122    8:00   0.61   65.9    36    4.8    73     8.1   99999.0    0.00 
 122    8:10   0.76   66.6    34    3.4    36     6.0   99999.0    0.00 
 122    8:20   0.84   67.5    32    4.0    56     7.8   99999.0    0.00 
 122    8:30   0.67   68.3    30    6.6   104    10.6   99999.0    0.00 
 122    8:40   0.50   67.7    31    5.7   113    10.3   99999.0    0.00 
 122    8:50   0.47   67.4    32    6.5    81    12.1   99999.0    0.00 
 122    9:00   0.47   67.5    31    6.1    70    15.3   99999.0    0.00 
 122    9:10   0.53   67.6    29    4.6    99    11.0   99999.0    0.00 
 122    9:20   0.45   66.9    29    4.5   286     9.6   99999.0    0.00 
 122    9:30   0.41   67.0    31    3.1   274     7.4   99999.0    0.00 
 122    9:40   0.47   67.6    30    7.4   238    14.9   99999.0    0.00 
 122    9:50   0.42   67.8    30    6.8   252    12.4   99999.0    0.00 
 122   10:00   0.33   67.4    30    6.0   235    10.6   99999.0    0.00 
 122   10:10   0.25   67.7    30    5.2   237    11.7   99999.0    0.00 
 122   10:20   0.19   67.5    30    5.0   211    13.9   99999.0    0.00 
 122   10:30   0.19   67.5    29    6.0    94    12.4   99999.0    0.00 
 122   10:40   0.18   67.6    30    3.3   199     9.9   99999.0    0.00 
 122   10:50   0.23   67.6    30    5.0   212     9.9   99999.0    0.00 
 122   11:00   0.32   67.6    32    5.3   243    10.6   99999.0    0.00 

Return to Mogul Park graphs page.


Western Regional Climate Center,wrcc@dri.edu